Time;durP1;ratioP1;P1;durP2;ratioP2;P2;SDS_P1;SDS_P2;PMS_P1;PMS_P2;Temp;Humidity;BMP_temperature;BMP_pressure;BME280_temperature;BME280_humidity;BME280_pressure;Samples;Min_cycle;Max_cycle;Signal;HPM_P1;HPM_P2
2022/10/25 00:00:30;;;;;;;;;12.50;10.75;;;;;;;;6491716;31;8967;-59
2022/10/25 00:06:32;;;;;;;;;33.33;31.33;;;;;;;;6490542;39;8873;-59
2022/10/25 00:12:42;;;;;;;;;33.50;32.25;;;;;;;;6490159;39;8950;-59
2022/10/25 00:18:46;;;;;;;;;35.75;30.75;;;;;;;;6490944;39;8908;-58
2022/10/25 00:24:48;;;;;;;;;37.50;35.00;;;;;;;;6489094;31;8928;-59
2022/10/25 00:31:02;;;;;;;;;36.25;35.00;;;;;;;;6491144;39;8868;-59
2022/10/25 00:37:05;;;;;;;;;37.50;32.75;;;;;;;;6490002;46;8969;-59
2022/10/25 00:43:08;;;;;;;;;39.75;35.25;;;;;;;;6490587;31;8902;-59
2022/10/25 00:49:18;;;;;;;;;34.75;34.00;;;;;;;;6490276;31;8949;-59
2022/10/25 00:55:23;;;;;;;;;39.00;32.75;;;;;;;;6490251;39;9515;-58
2022/10/25 01:01:29;;;;;;;;;39.00;34.00;;;;;;;;6489888;39;8892;-59
2022/10/25 01:07:34;;;;;;;;;38.25;34.00;;;;;;;;6489351;39;8915;-60
2022/10/25 01:13:37;;;;;;;;;34.00;31.25;;;;;;;;6490808;31;9034;-58
2022/10/25 01:20:01;;;;;;;;;41.00;35.50;;;;;;;;6488783;46;8932;-59
2022/10/25 01:26:22;;;;;;;;;38.00;35.50;;;;;;;;6489969;46;8964;-59
2022/10/25 01:32:55;;;;;;;;;39.00;36.00;;;;;;;;6489403;31;8926;-59
2022/10/25 01:39:05;;;;;;;;;44.00;37.50;;;;;;;;6489472;39;8871;-58
2022/10/25 01:45:28;;;;;;;;;41.50;37.25;;;;;;;;6490447;31;8958;-59
2022/10/25 01:51:37;;;;;;;;;38.75;35.00;;;;;;;;6489704;46;8879;-58
2022/10/25 01:57:47;;;;;;;;;39.00;37.75;;;;;;;;6489943;39;8874;-59
2022/10/25 02:03:57;;;;;;;;;46.75;39.00;;;;;;;;6488734;39;8884;-58
2022/10/25 02:10:30;;;;;;;;;48.75;39.00;;;;;;;;6490051;39;8945;-58
2022/10/25 02:16:57;;;;;;;;;45.25;41.00;;;;;;;;6488901;39;8965;-58
2022/10/25 02:23:04;;;;;;;;;48.75;41.25;;;;;;;;6490278;39;8939;-59
2022/10/25 02:29:10;;;;;;;;;49.25;41.25;;;;;;;;6488706;39;9620;-60
2022/10/25 02:35:14;;;;;;;;;45.75;40.50;;;;;;;;6490072;31;8869;-59
2022/10/25 02:41:19;;;;;;;;;48.50;40.75;;;;;;;;6488878;31;8874;-59
2022/10/25 02:47:21;;;;;;;;;46.50;39.25;;;;;;;;6489400;39;8883;-59
2022/10/25 02:53:24;;;;;;;;;44.00;39.00;;;;;;;;6490722;46;8967;-59
2022/10/25 02:59:26;;;;;;;;;57.25;44.00;;;;;;;;6490210;46;8873;-59
2022/10/25 03:05:29;;;;;;;;;48.75;41.50;;;;;;;;6491914;31;8970;-59
2022/10/25 03:11:32;;;;;;;;;52.25;41.75;;;;;;;;6491055;31;8925;-60
2022/10/25 03:17:35;;;;;;;;;52.67;43.00;;;;;;;;6491033;39;8930;-59
2022/10/25 03:23:38;;;;;;;;;46.00;42.00;;;;;;;;6492046;31;8940;-59
2022/10/25 03:29:40;;;;;;;;;52.25;43.50;;;;;;;;6491323;39;8885;-60
2022/10/25 03:35:42;;;;;;;;;54.75;42.25;;;;;;;;6490482;46;8936;-59
2022/10/25 03:41:44;;;;;;;;;58.75;47.50;;;;;;;;6490946;39;8842;-59
2022/10/25 03:47:46;;;;;;;;;56.50;43.25;;;;;;;;6490829;39;8869;-59
2022/10/25 03:53:49;;;;;;;;;48.00;42.00;;;;;;;;6490714;46;8922;-60
2022/10/25 03:59:51;;;;;;;;;44.00;39.00;;;;;;;;6490614;39;8860;-59
2022/10/25 04:05:55;;;;;;;;;41.75;37.00;;;;;;;;6490338;39;8882;-58
2022/10/25 04:11:57;;;;;;;;;44.00;41.00;;;;;;;;6490051;31;8944;-59
2022/10/25 04:17:59;;;;;;;;;55.50;43.50;;;;;;;;6489960;46;8944;-60
2022/10/25 04:24:02;;;;;;;;;47.50;38.00;;;;;;;;6490642;39;8865;-59
2022/10/25 04:30:06;;;;;;;;;55.00;46.75;;;;;;;;6490679;31;8922;-59
2022/10/25 04:36:09;;;;;;;;;57.75;45.50;;;;;;;;6487916;46;8821;-59
2022/10/25 04:42:11;;;;;;;;;53.75;44.00;;;;;;;;6489853;31;9017;-59
2022/10/25 04:48:16;;;;;;;;;58.50;46.75;;;;;;;;6489747;39;8964;-59
2022/10/25 04:54:17;;;;;;;;;54.67;47.00;;;;;;;;6490763;31;8914;-59
2022/10/25 05:07:04;;;;;;;;;57.25;47.00;;;;;;;;6481586;31;9024;-61
